sensor_id;sensor_type;location;lat;lon;timestamp;P1;durP1;ratioP1;P2;durP2;ratioP2
48727;SDS011;34527;45.618;5.130;2022-08-05T00:01:42;2.25;;;1.17;;
48727;SDS011;34527;45.618;5.130;2022-08-05T00:04:08;1.38;;;1.20;;
48727;SDS011;34527;45.618;5.130;2022-08-05T00:06:34;1.85;;;1.10;;
48727;SDS011;34527;45.618;5.130;2022-08-05T00:09:00;1.45;;;1.35;;
48727;SDS011;34527;45.618;5.130;2022-08-05T00:11:27;1.20;;;1.10;;
48727;SDS011;34527;45.618;5.130;2022-08-05T00:13:53;1.00;;;1.00;;
48727;SDS011;34527;45.618;5.130;2022-08-05T00:16:19;0.93;;;0.93;;
48727;SDS011;34527;45.618;5.130;2022-08-05T00:18:46;1.90;;;1.10;;
48727;SDS011;34527;45.618;5.130;2022-08-05T00:21:13;1.02;;;0.90;;
48727;SDS011;34527;45.618;5.130;2022-08-05T00:23:41;1.20;;;1.10;;
48727;SDS011;34527;45.618;5.130;2022-08-05T00:26:08;1.35;;;1.20;;
48727;SDS011;34527;45.618;5.130;2022-08-05T00:28:34;1.10;;;1.00;;
48727;SDS011;34527;45.618;5.130;2022-08-05T00:31:00;1.83;;;1.30;;
48727;SDS011;34527;45.618;5.130;2022-08-05T00:33:26;2.28;;;1.25;;
48727;SDS011;34527;45.618;5.130;2022-08-05T00:35:53;1.50;;;1.23;;
48727;SDS011;34527;45.618;5.130;2022-08-05T00:38:18;2.17;;;1.20;;
48727;SDS011;34527;45.618;5.130;2022-08-05T00:40:46;1.30;;;1.15;;
48727;SDS011;34527;45.618;5.130;2022-08-05T00:43:16;1.27;;;1.17;;
48727;SDS011;34527;45.618;5.130;2022-08-05T00:45:42;1.42;;;0.85;;
48727;SDS011;34527;45.618;5.130;2022-08-05T00:48:09;1.65;;;0.98;;
48727;SDS011;34527;45.618;5.130;2022-08-05T00:50:37;3.03;;;1.00;;
48727;SDS011;34527;45.618;5.130;2022-08-05T00:53:03;2.22;;;1.10;;
48727;SDS011;34527;45.618;5.130;2022-08-05T00:55:29;1.80;;;1.20;;
48727;SDS011;34527;45.618;5.130;2022-08-05T00:57:55;1.40;;;1.30;;
48727;SDS011;34527;45.618;5.130;2022-08-05T01:00:21;1.10;;;1.00;;
48727;SDS011;34527;45.618;5.130;2022-08-05T01:02:47;1.33;;;1.23;;
48727;SDS011;34527;45.618;5.130;2022-08-05T01:05:13;1.80;;;1.35;;
48727;SDS011;34527;45.618;5.130;2022-08-05T01:07:39;1.73;;;1.15;;
48727;SDS011;34527;45.618;5.130;2022-08-05T01:10:06;1.10;;;1.10;;
48727;SDS011;34527;45.618;5.130;2022-08-05T01:12:37;2.17;;;1.05;;
48727;SDS011;34527;45.618;5.130;2022-08-05T01:15:08;1.20;;;1.10;;
48727;SDS011;34527;45.618;5.130;2022-08-05T01:17:38;1.42;;;1.25;;
48727;SDS011;34527;45.618;5.130;2022-08-05T01:20:18;1.75;;;1.35;;
48727;SDS011;34527;45.618;5.130;2022-08-05T01:23:12;1.73;;;1.40;;
48727;SDS011;34527;45.618;5.130;2022-08-05T01:33:55;2.20;;;1.60;;
48727;SDS011;34527;45.618;5.130;2022-08-05T01:36:30;1.50;;;1.40;;
48727;SDS011;34527;45.618;5.130;2022-08-05T01:39:00;2.10;;;1.52;;
48727;SDS011;34527;45.618;5.130;2022-08-05T01:41:26;4.97;;;1.67;;
48727;SDS011;34527;45.618;5.130;2022-08-05T01:43:56;3.47;;;1.80;;
48727;SDS011;34527;45.618;5.130;2022-08-05T01:46:23;4.55;;;1.73;;
48727;SDS011;34527;45.618;5.130;2022-08-05T01:48:50;2.95;;;1.92;;
48727;SDS011;34527;45.618;5.130;2022-08-05T01:51:18;3.63;;;1.70;;
48727;SDS011;34527;45.618;5.130;2022-08-05T01:53:46;2.75;;;1.70;;
48727;SDS011;34527;45.618;5.130;2022-08-05T01:56:15;2.75;;;1.92;;
48727;SDS011;34527;45.618;5.130;2022-08-05T01:58:43;2.72;;;1.67;;
48727;SDS011;34527;45.618;5.130;2022-08-05T02:01:09;2.10;;;1.73;;
48727;SDS011;34527;45.618;5.130;2022-08-05T02:03:39;3.03;;;2.20;;
48727;SDS011;34527;45.618;5.130;2022-08-05T02:06:10;4.35;;;2.00;;
48727;SDS011;34527;45.618;5.130;2022-08-05T02:08:37;2.28;;;1.83;;
48727;SDS011;34527;45.618;5.130;2022-08-05T02:11:05;4.10;;;2.10;;
48727;SDS011;34527;45.618;5.130;2022-08-05T02:13:37;3.80;;;2.13;;
48727;SDS011;34527;45.618;5.130;2022-08-05T02:19:15;3.22;;;1.90;;
48727;SDS011;34527;45.618;5.130;2022-08-05T02:21:43;3.20;;;1.80;;
48727;SDS011;34527;45.618;5.130;2022-08-05T02:24:38;2.53;;;1.80;;
48727;SDS011;34527;45.618;5.130;2022-08-05T02:27:09;2.15;;;1.90;;
48727;SDS011;34527;45.618;5.130;2022-08-05T02:29:36;2.22;;;1.90;;
48727;SDS011;34527;45.618;5.130;2022-08-05T02:32:07;3.00;;;2.08;;
48727;SDS011;34527;45.618;5.130;2022-08-05T02:34:35;4.03;;;2.15;;
48727;SDS011;34527;45.618;5.130;2022-08-05T02:37:03;3.97;;;1.90;;
48727;SDS011;34527;45.618;5.130;2022-08-05T02:39:34;2.13;;;1.90;;
48727;SDS011;34527;45.618;5.130;2022-08-05T02:42:01;3.25;;;1.70;;
48727;SDS011;34527;45.618;5.130;2022-08-05T02:44:29;3.97;;;2.10;;
48727;SDS011;34527;45.618;5.130;2022-08-05T02:46:57;2.83;;;1.88;;
48727;SDS011;34527;45.618;5.130;2022-08-05T02:49:24;2.63;;;2.33;;
48727;SDS011;34527;45.618;5.130;2022-08-05T02:51:51;3.88;;;2.25;;
48727;SDS011;34527;45.618;5.130;2022-08-05T02:54:19;3.45;;;2.00;;
48727;SDS011;34527;45.618;5.130;2022-08-05T02:56:46;3.80;;;2.10;;
48727;SDS011;34527;45.618;5.130;2022-08-05T02:59:13;6.05;;;2.35;;
48727;SDS011;34527;45.618;5.130;2022-08-05T03:01:41;3.03;;;2.20;;
48727;SDS011;34527;45.618;5.130;2022-08-05T03:04:10;3.72;;;2.15;;
48727;SDS011;34527;45.618;5.130;2022-08-05T03:06:38;4.20;;;2.05;;
48727;SDS011;34527;45.618;5.130;2022-08-05T03:09:06;3.63;;;2.17;;
48727;SDS011;34527;45.618;5.130;2022-08-05T03:11:35;2.20;;;2.00;;
48727;SDS011;34527;45.618;5.130;2022-08-05T03:14:01;3.97;;;2.60;;
48727;SDS011;34527;45.618;5.130;2022-08-05T03:16:27;2.67;;;2.47;;
48727;SDS011;34527;45.618;5.130;2022-08-05T03:18:53;4.85;;;2.80;;
48727;SDS011;34527;45.618;5.130;2022-08-05T03:21:18;4.15;;;2.78;;
48727;SDS011;34527;45.618;5.130;2022-08-05T03:23:44;5.25;;;2.53;;
48727;SDS011;34527;45.618;5.130;2022-08-05T03:26:11;2.50;;;2.10;;
48727;SDS011;34527;45.618;5.130;2022-08-05T03:28:37;4.00;;;2.20;;
48727;SDS011;34527;45.618;5.130;2022-08-05T03:31:03;3.53;;;2.42;;
48727;SDS011;34527;45.618;5.130;2022-08-05T03:33:29;3.03;;;2.20;;
48727;SDS011;34527;45.618;5.130;2022-08-05T03:35:56;4.05;;;2.20;;
48727;SDS011;34527;45.618;5.130;2022-08-05T03:38:23;2.50;;;2.30;;
48727;SDS011;34527;45.618;5.130;2022-08-05T03:40:50;3.10;;;2.45;;
48727;SDS011;34527;45.618;5.130;2022-08-05T03:43:19;4.43;;;2.13;;
48727;SDS011;34527;45.618;5.130;2022-08-05T03:45:48;2.75;;;2.20;;
48727;SDS011;34527;45.618;5.130;2022-08-05T03:48:16;5.82;;;2.55;;
48727;SDS011;34527;45.618;5.130;2022-08-05T03:56:43;4.28;;;2.40;;
48727;SDS011;34527;45.618;5.130;2022-08-05T03:59:15;3.30;;;2.30;;
48727;SDS011;34527;45.618;5.130;2022-08-05T04:01:45;4.70;;;2.63;;
48727;SDS011;34527;45.618;5.130;2022-08-05T04:04:13;19.63;;;3.03;;
48727;SDS011;34527;45.618;5.130;2022-08-05T04:06:40;2.75;;;2.35;;
48727;SDS011;34527;45.618;5.130;2022-08-05T04:09:07;2.30;;;2.10;;
48727;SDS011;34527;45.618;5.130;2022-08-05T04:11:34;2.75;;;2.28;;
48727;SDS011;34527;45.618;5.130;2022-08-05T04:14:01;6.22;;;2.30;;
48727;SDS011;34527;45.618;5.130;2022-08-05T04:16:28;3.95;;;2.65;;
48727;SDS011;34527;45.618;5.130;2022-08-05T04:18:56;6.15;;;2.40;;
48727;SDS011;34527;45.618;5.130;2022-08-05T04:21:22;13.10;;;2.47;;
48727;SDS011;34527;45.618;5.130;2022-08-05T04:23:49;4.07;;;2.40;;
48727;SDS011;34527;45.618;5.130;2022-08-05T04:26:15;4.05;;;2.70;;
48727;SDS011;34527;45.618;5.130;2022-08-05T04:28:41;4.07;;;2.53;;
48727;SDS011;34527;45.618;5.130;2022-08-05T04:31:07;9.45;;;2.80;;
48727;SDS011;34527;45.618;5.130;2022-08-05T04:33:32;3.25;;;2.50;;
48727;SDS011;34527;45.618;5.130;2022-08-05T04:35:58;3.13;;;2.40;;
48727;SDS011;34527;45.618;5.130;2022-08-05T04:38:24;8.30;;;2.78;;
48727;SDS011;34527;45.618;5.130;2022-08-05T04:40:50;2.42;;;2.25;;
48727;SDS011;34527;45.618;5.130;2022-08-05T04:43:16;2.63;;;2.40;;
48727;SDS011;34527;45.618;5.130;2022-08-05T04:45:42;2.95;;;2.63;;
48727;SDS011;34527;45.618;5.130;2022-08-05T04:48:10;2.70;;;2.47;;
48727;SDS011;34527;45.618;5.130;2022-08-05T04:50:38;5.88;;;2.50;;
48727;SDS011;34527;45.618;5.130;2022-08-05T04:53:09;2.85;;;2.30;;
48727;SDS011;34527;45.618;5.130;2022-08-05T04:55:36;4.18;;;2.70;;
48727;SDS011;34527;45.618;5.130;2022-08-05T04:58:03;4.07;;;2.65;;
48727;SDS011;34527;45.618;5.130;2022-08-05T05:00:31;3.30;;;2.70;;
48727;SDS011;34527;45.618;5.130;2022-08-05T05:02:57;3.58;;;2.58;;
48727;SDS011;34527;45.618;5.130;2022-08-05T05:05:23;4.43;;;2.95;;
48727;SDS011;34527;45.618;5.130;2022-08-05T05:07:49;2.70;;;2.50;;
48727;SDS011;34527;45.618;5.130;2022-08-05T05:10:15;2.83;;;2.60;;
48727;SDS011;34527;45.618;5.130;2022-08-05T05:12:41;3.28;;;2.70;;
48727;SDS011;34527;45.618;5.130;2022-08-05T05:15:07;2.75;;;2.55;;
48727;SDS011;34527;45.618;5.130;2022-08-05T05:17:39;3.03;;;2.70;;
48727;SDS011;34527;45.618;5.130;2022-08-05T05:20:08;3.47;;;2.63;;
48727;SDS011;34527;45.618;5.130;2022-08-05T05:22:35;3.47;;;2.25;;
48727;SDS011;34527;45.618;5.130;2022-08-05T05:25:02;4.90;;;2.75;;
48727;SDS011;34527;45.618;5.130;2022-08-05T05:27:28;3.92;;;2.72;;
48727;SDS011;34527;45.618;5.130;2022-08-05T05:29:56;5.05;;;2.78;;
48727;SDS011;34527;45.618;5.130;2022-08-05T05:32:22;5.43;;;2.75;;
48727;SDS011;34527;45.618;5.130;2022-08-05T05:34:48;4.90;;;2.90;;
48727;SDS011;34527;45.618;5.130;2022-08-05T05:37:14;5.32;;;3.10;;
48727;SDS011;34527;45.618;5.130;2022-08-05T05:39:40;4.28;;;2.78;;
48727;SDS011;34527;45.618;5.130;2022-08-05T05:42:06;3.47;;;2.95;;
48727;SDS011;34527;45.618;5.130;2022-08-05T05:44:32;7.00;;;2.95;;
48727;SDS011;34527;45.618;5.130;2022-08-05T05:46:58;4.30;;;2.95;;
48727;SDS011;34527;45.618;5.130;2022-08-05T05:49:24;3.33;;;2.92;;
48727;SDS011;34527;45.618;5.130;2022-08-05T05:51:51;3.92;;;2.90;;
48727;SDS011;34527;45.618;5.130;2022-08-05T05:54:17;3.55;;;2.83;;
48727;SDS011;34527;45.618;5.130;2022-08-05T05:56:43;3.35;;;2.80;;
48727;SDS011;34527;45.618;5.130;2022-08-05T05:59:09;5.40;;;2.70;;
48727;SDS011;34527;45.618;5.130;2022-08-05T06:01:36;7.10;;;2.85;;
48727;SDS011;34527;45.618;5.130;2022-08-05T06:04:07;3.85;;;3.17;;
48727;SDS011;34527;45.618;5.130;2022-08-05T06:06:36;3.45;;;3.15;;
48727;SDS011;34527;45.618;5.130;2022-08-05T06:09:03;3.05;;;2.75;;
48727;SDS011;34527;45.618;5.130;2022-08-05T06:11:31;3.00;;;2.72;;
48727;SDS011;34527;45.618;5.130;2022-08-05T06:13:57;5.05;;;2.92;;
48727;SDS011;34527;45.618;5.130;2022-08-05T06:16:23;4.97;;;3.08;;
48727;SDS011;34527;45.618;5.130;2022-08-05T06:18:49;4.18;;;2.85;;
48727;SDS011;34527;45.618;5.130;2022-08-05T06:21:16;3.97;;;2.70;;
48727;SDS011;34527;45.618;5.130;2022-08-05T06:23:42;3.15;;;2.92;;
48727;SDS011;34527;45.618;5.130;2022-08-05T06:26:08;2.97;;;2.78;;
48727;SDS011;34527;45.618;5.130;2022-08-05T06:28:34;4.65;;;3.03;;
48727;SDS011;34527;45.618;5.130;2022-08-05T06:31:01;6.43;;;3.20;;
48727;SDS011;34527;45.618;5.130;2022-08-05T06:33:27;3.38;;;2.75;;
48727;SDS011;34527;45.618;5.130;2022-08-05T06:35:53;5.13;;;3.00;;
48727;SDS011;34527;45.618;5.130;2022-08-05T06:38:19;3.10;;;2.78;;
48727;SDS011;34527;45.618;5.130;2022-08-05T06:40:45;4.25;;;3.15;;
48727;SDS011;34527;45.618;5.130;2022-08-05T06:43:11;3.60;;;2.83;;
48727;SDS011;34527;45.618;5.130;2022-08-05T06:45:38;7.70;;;3.22;;
48727;SDS011;34527;45.618;5.130;2022-08-05T06:48:04;8.27;;;3.00;;
48727;SDS011;34527;45.618;5.130;2022-08-05T06:50:30;5.10;;;2.95;;
48727;SDS011;34527;45.618;5.130;2022-08-05T06:52:58;4.45;;;2.63;;
48727;SDS011;34527;45.618;5.130;2022-08-05T06:55:29;3.15;;;2.65;;
48727;SDS011;34527;45.618;5.130;2022-08-05T06:57:55;5.43;;;2.70;;
48727;SDS011;34527;45.618;5.130;2022-08-05T07:00:21;3.72;;;3.42;;
48727;SDS011;34527;45.618;5.130;2022-08-05T07:02:47;3.72;;;2.70;;
48727;SDS011;34527;45.618;5.130;2022-08-05T07:05:13;5.25;;;3.50;;
48727;SDS011;34527;45.618;5.130;2022-08-05T07:07:39;3.63;;;2.80;;
48727;SDS011;34527;45.618;5.130;2022-08-05T07:10:08;6.03;;;2.70;;
48727;SDS011;34527;45.618;5.130;2022-08-05T07:12:34;3.83;;;2.83;;
48727;SDS011;34527;45.618;5.130;2022-08-05T07:15:19;3.13;;;2.70;;
48727;SDS011;34527;45.618;5.130;2022-08-05T07:18:04;3.20;;;2.90;;
48727;SDS011;34527;45.618;5.130;2022-08-05T07:20:29;3.88;;;2.95;;
48727;SDS011;34527;45.618;5.130;2022-08-05T07:22:55;5.13;;;2.85;;
48727;SDS011;34527;45.618;5.130;2022-08-05T07:25:21;4.28;;;2.75;;
48727;SDS011;34527;45.618;5.130;2022-08-05T07:27:48;9.77;;;5.03;;
48727;SDS011;34527;45.618;5.130;2022-08-05T07:30:14;4.95;;;4.25;;
48727;SDS011;34527;45.618;5.130;2022-08-05T07:32:40;3.97;;;2.88;;
48727;SDS011;34527;45.618;5.130;2022-08-05T07:35:07;3.88;;;2.83;;
48727;SDS011;34527;45.618;5.130;2022-08-05T07:37:34;5.35;;;3.67;;
48727;SDS011;34527;45.618;5.130;2022-08-05T07:40:00;4.85;;;3.40;;
48727;SDS011;34527;45.618;5.130;2022-08-05T07:42:26;4.70;;;2.80;;
48727;SDS011;34527;45.618;5.130;2022-08-05T07:44:52;3.28;;;2.97;;
48727;SDS011;34527;45.618;5.130;2022-08-05T07:47:18;4.53;;;3.45;;
48727;SDS011;34527;45.618;5.130;2022-08-05T07:49:43;3.08;;;2.78;;
48727;SDS011;34527;45.618;5.130;2022-08-05T07:52:09;3.22;;;2.92;;
48727;SDS011;34527;45.618;5.130;2022-08-05T07:54:35;3.00;;;2.80;;
48727;SDS011;34527;45.618;5.130;2022-08-05T07:57:01;4.78;;;2.70;;
48727;SDS011;34527;45.618;5.130;2022-08-05T07:59:28;16.83;;;3.90;;
48727;SDS011;34527;45.618;5.130;2022-08-05T08:01:54;4.63;;;2.97;;
48727;SDS011;34527;45.618;5.130;2022-08-05T08:04:20;3.72;;;2.95;;
48727;SDS011;34527;45.618;5.130;2022-08-05T08:06:45;5.30;;;2.90;;
48727;SDS011;34527;45.618;5.130;2022-08-05T08:09:11;3.03;;;2.80;;
48727;SDS011;34527;45.618;5.130;2022-08-05T08:11:37;3.40;;;2.50;;
48727;SDS011;34527;45.618;5.130;2022-08-05T08:14:03;4.55;;;2.58;;
48727;SDS011;34527;45.618;5.130;2022-08-05T08:16:29;5.07;;;3.00;;
48727;SDS011;34527;45.618;5.130;2022-08-05T08:18:55;3.50;;;2.78;;
48727;SDS011;34527;45.618;5.130;2022-08-05T08:21:21;3.00;;;2.70;;
48727;SDS011;34527;45.618;5.130;2022-08-05T08:23:47;3.40;;;2.80;;
48727;SDS011;34527;45.618;5.130;2022-08-05T08:26:12;5.03;;;2.42;;
48727;SDS011;34527;45.618;5.130;2022-08-05T08:28:38;7.65;;;3.08;;
48727;SDS011;34527;45.618;5.130;2022-08-05T08:31:05;3.03;;;2.60;;
48727;SDS011;34527;45.618;5.130;2022-08-05T08:33:31;3.97;;;2.65;;
48727;SDS011;34527;45.618;5.130;2022-08-05T08:35:57;4.88;;;2.63;;
48727;SDS011;34527;45.618;5.130;2022-08-05T08:38:23;3.28;;;2.50;;
48727;SDS011;34527;45.618;5.130;2022-08-05T08:40:49;4.93;;;2.70;;
48727;SDS011;34527;45.618;5.130;2022-08-05T08:43:15;4.28;;;2.80;;
48727;SDS011;34527;45.618;5.130;2022-08-05T08:45:43;3.67;;;2.80;;
48727;SDS011;34527;45.618;5.130;2022-08-05T08:48:11;5.03;;;3.03;;
48727;SDS011;34527;45.618;5.130;2022-08-05T08:50:41;4.30;;;2.83;;
48727;SDS011;34527;45.618;5.130;2022-08-05T08:53:08;8.30;;;3.03;;
48727;SDS011;34527;45.618;5.130;2022-08-05T08:55:36;4.10;;;2.78;;
48727;SDS011;34527;45.618;5.130;2022-08-05T08:58:03;4.35;;;2.92;;
48727;SDS011;34527;45.618;5.130;2022-08-05T09:00:29;4.22;;;2.80;;
48727;SDS011;34527;45.618;5.130;2022-08-05T09:02:58;5.85;;;2.95;;
48727;SDS011;34527;45.618;5.130;2022-08-05T09:05:30;4.90;;;2.58;;
48727;SDS011;34527;45.618;5.130;2022-08-05T09:07:59;3.60;;;3.28;;
48727;SDS011;34527;45.618;5.130;2022-08-05T09:10:25;6.35;;;3.30;;
48727;SDS011;34527;45.618;5.130;2022-08-05T09:12:52;2.92;;;2.58;;
48727;SDS011;34527;45.618;5.130;2022-08-05T09:15:18;3.20;;;2.95;;
48727;SDS011;34527;45.618;5.130;2022-08-05T09:17:44;3.20;;;2.65;;
48727;SDS011;34527;45.618;5.130;2022-08-05T09:20:10;4.40;;;3.15;;
48727;SDS011;34527;45.618;5.130;2022-08-05T09:23:22;4.68;;;2.80;;
48727;SDS011;34527;45.618;5.130;2022-08-05T09:25:30;5.97;;;3.10;;
48727;SDS011;34527;45.618;5.130;2022-08-05T09:28:04;4.75;;;2.83;;
48727;SDS011;34527;45.618;5.130;2022-08-05T09:30:44;3.63;;;2.80;;
48727;SDS011;34527;45.618;5.130;2022-08-05T09:33:21;4.15;;;2.72;;
48727;SDS011;34527;45.618;5.130;2022-08-05T09:35:55;4.30;;;3.45;;
48727;SDS011;34527;45.618;5.130;2022-08-05T09:38:25;6.32;;;3.10;;
48727;SDS011;34527;45.618;5.130;2022-08-05T09:40:52;4.57;;;3.30;;
48727;SDS011;34527;45.618;5.130;2022-08-05T09:45:56;3.10;;;2.80;;
48727;SDS011;34527;45.618;5.130;2022-08-05T09:48:26;3.55;;;3.25;;
48727;SDS011;34527;45.618;5.130;2022-08-05T09:50:57;3.65;;;2.80;;
48727;SDS011;34527;45.618;5.130;2022-08-05T09:53:24;3.20;;;2.90;;
48727;SDS011;34527;45.618;5.130;2022-08-05T09:55:55;4.13;;;2.95;;
48727;SDS011;34527;45.618;5.130;2022-08-05T09:58:24;3.67;;;3.25;;
48727;SDS011;34527;45.618;5.130;2022-08-05T10:03:20;4.13;;;3.08;;
48727;SDS011;34527;45.618;5.130;2022-08-05T10:05:58;4.07;;;2.92;;
48727;SDS011;34527;45.618;5.130;2022-08-05T10:08:35;3.90;;;3.20;;
48727;SDS011;34527;45.618;5.130;2022-08-05T10:11:12;6.57;;;4.22;;
48727;SDS011;34527;45.618;5.130;2022-08-05T10:13:39;6.05;;;3.80;;
48727;SDS011;34527;45.618;5.130;2022-08-05T10:16:05;3.55;;;3.30;;
48727;SDS011;34527;45.618;5.130;2022-08-05T10:18:51;6.10;;;3.45;;
48727;SDS011;34527;45.618;5.130;2022-08-05T10:21:18;3.70;;;3.40;;
48727;SDS011;34527;45.618;5.130;2022-08-05T10:23:44;6.38;;;3.50;;
48727;SDS011;34527;45.618;5.130;2022-08-05T10:26:11;5.30;;;3.40;;
48727;SDS011;34527;45.618;5.130;2022-08-05T10:28:37;6.10;;;3.95;;
48727;SDS011;34527;45.618;5.130;2022-08-05T10:31:03;3.88;;;3.47;;
48727;SDS011;34527;45.618;5.130;2022-08-05T10:33:30;5.50;;;3.22;;
48727;SDS011;34527;45.618;5.130;2022-08-05T10:35:58;4.05;;;3.20;;
48727;SDS011;34527;45.618;5.130;2022-08-05T10:38:28;5.82;;;3.53;;
48727;SDS011;34527;45.618;5.130;2022-08-05T10:40:57;3.70;;;3.40;;
48727;SDS011;34527;45.618;5.130;2022-08-05T10:46:20;5.15;;;3.40;;
48727;SDS011;34527;45.618;5.130;2022-08-05T10:48:49;6.97;;;3.22;;
48727;SDS011;34527;45.618;5.130;2022-08-05T10:51:22;4.90;;;3.55;;
48727;SDS011;34527;45.618;5.130;2022-08-05T10:53:52;6.70;;;3.13;;
48727;SDS011;34527;45.618;5.130;2022-08-05T10:56:20;4.30;;;3.25;;
48727;SDS011;34527;45.618;5.130;2022-08-05T11:04:11;3.50;;;3.00;;
48727;SDS011;34527;45.618;5.130;2022-08-05T11:09:25;3.63;;;3.30;;
48727;SDS011;34527;45.618;5.130;2022-08-05T11:11:53;3.75;;;3.40;;
48727;SDS011;34527;45.618;5.130;2022-08-05T11:14:24;4.97;;;3.72;;
48727;SDS011;34527;45.618;5.130;2022-08-05T11:19:58;6.30;;;3.60;;
48727;SDS011;34527;45.618;5.130;2022-08-05T11:22:39;4.22;;;3.65;;
48727;SDS011;34527;45.618;5.130;2022-08-05T11:25:29;8.90;;;3.50;;
48727;SDS011;34527;45.618;5.130;2022-08-05T11:33:35;4.15;;;3.40;;
48727;SDS011;34527;45.618;5.130;2022-08-05T11:39:04;6.10;;;3.38;;
48727;SDS011;34527;45.618;5.130;2022-08-05T11:41:30;7.00;;;3.60;;
48727;SDS011;34527;45.618;5.130;2022-08-05T11:44:00;3.83;;;3.50;;
48727;SDS011;34527;45.618;5.130;2022-08-05T11:48:55;7.75;;;3.67;;
48727;SDS011;34527;45.618;5.130;2022-08-05T11:51:22;7.72;;;3.35;;
48727;SDS011;34527;45.618;5.130;2022-08-05T11:53:51;5.78;;;3.78;;
48727;SDS011;34527;45.618;5.130;2022-08-05T11:56:17;4.57;;;3.65;;
48727;SDS011;34527;45.618;5.130;2022-08-05T11:58:44;3.55;;;3.25;;
48727;SDS011;34527;45.618;5.130;2022-08-05T12:01:13;3.88;;;3.55;;
48727;SDS011;34527;45.618;5.130;2022-08-05T12:03:46;4.15;;;3.63;;
48727;SDS011;34527;45.618;5.130;2022-08-05T12:06:18;6.32;;;5.68;;
48727;SDS011;34527;45.618;5.130;2022-08-05T12:08:49;6.45;;;3.90;;
48727;SDS011;34527;45.618;5.130;2022-08-05T12:11:23;5.25;;;3.58;;
48727;SDS011;34527;45.618;5.130;2022-08-05T12:13:58;4.13;;;3.70;;
48727;SDS011;34527;45.618;5.130;2022-08-05T12:16:30;6.07;;;4.03;;
48727;SDS011;34527;45.618;5.130;2022-08-05T12:18:58;6.00;;;3.70;;
48727;SDS011;34527;45.618;5.130;2022-08-05T12:21:28;4.65;;;3.55;;
48727;SDS011;34527;45.618;5.130;2022-08-05T12:26:33;7.18;;;3.80;;
48727;SDS011;34527;45.618;5.130;2022-08-05T12:28:59;5.25;;;3.53;;
48727;SDS011;34527;45.618;5.130;2022-08-05T12:31:26;6.00;;;3.67;;
48727;SDS011;34527;45.618;5.130;2022-08-05T12:33:52;6.20;;;4.07;;
48727;SDS011;34527;45.618;5.130;2022-08-05T12:36:21;5.40;;;3.97;;
48727;SDS011;34527;45.618;5.130;2022-08-05T12:38:47;4.97;;;4.03;;
48727;SDS011;34527;45.618;5.130;2022-08-05T12:41:13;4.60;;;3.70;;
48727;SDS011;34527;45.618;5.130;2022-08-05T12:43:53;4.28;;;3.83;;
48727;SDS011;34527;45.618;5.130;2022-08-05T12:46:22;5.55;;;4.13;;
48727;SDS011;34527;45.618;5.130;2022-08-05T12:48:56;4.10;;;3.70;;
48727;SDS011;34527;45.618;5.130;2022-08-05T12:51:30;4.65;;;3.90;;
48727;SDS011;34527;45.618;5.130;2022-08-05T12:54:07;5.47;;;4.35;;
48727;SDS011;34527;45.618;5.130;2022-08-05T12:56:33;8.48;;;4.10;;
48727;SDS011;34527;45.618;5.130;2022-08-05T12:59:09;5.93;;;3.55;;
48727;SDS011;34527;45.618;5.130;2022-08-05T13:01:53;6.55;;;3.83;;
48727;SDS011;34527;45.618;5.130;2022-08-05T13:04:20;5.88;;;3.80;;
48727;SDS011;34527;45.618;5.130;2022-08-05T13:06:47;11.00;;;4.05;;
48727;SDS011;34527;45.618;5.130;2022-08-05T13:09:13;6.13;;;3.90;;
48727;SDS011;34527;45.618;5.130;2022-08-05T13:11:40;5.40;;;3.78;;
48727;SDS011;34527;45.618;5.130;2022-08-05T13:14:23;4.38;;;4.00;;
48727;SDS011;34527;45.618;5.130;2022-08-05T13:16:55;4.28;;;3.60;;
48727;SDS011;34527;45.618;5.130;2022-08-05T13:19:26;4.20;;;3.80;;
48727;SDS011;34527;45.618;5.130;2022-08-05T13:21:53;4.22;;;3.92;;
48727;SDS011;34527;45.618;5.130;2022-08-05T13:24:20;4.30;;;3.72;;
48727;SDS011;34527;45.618;5.130;2022-08-05T13:26:49;6.35;;;3.83;;
48727;SDS011;34527;45.618;5.130;2022-08-05T13:29:17;5.93;;;3.88;;
48727;SDS011;34527;45.618;5.130;2022-08-05T13:31:46;6.07;;;3.63;;
48727;SDS011;34527;45.618;5.130;2022-08-05T13:34:12;7.35;;;3.70;;
48727;SDS011;34527;45.618;5.130;2022-08-05T13:36:39;5.80;;;4.38;;
48727;SDS011;34527;45.618;5.130;2022-08-05T13:39:06;4.72;;;3.92;;
48727;SDS011;34527;45.618;5.130;2022-08-05T13:41:32;4.10;;;3.35;;
48727;SDS011;34527;45.618;5.130;2022-08-05T13:43:58;5.78;;;3.72;;
48727;SDS011;34527;45.618;5.130;2022-08-05T13:46:24;4.85;;;4.05;;
48727;SDS011;34527;45.618;5.130;2022-08-05T13:48:52;3.90;;;3.50;;
48727;SDS011;34527;45.618;5.130;2022-08-05T13:51:24;7.18;;;3.88;;
48727;SDS011;34527;45.618;5.130;2022-08-05T13:53:53;6.18;;;3.55;;
48727;SDS011;34527;45.618;5.130;2022-08-05T13:56:18;3.72;;;3.42;;
48727;SDS011;34527;45.618;5.130;2022-08-05T13:58:45;3.90;;;3.42;;
48727;SDS011;34527;45.618;5.130;2022-08-05T14:01:10;5.47;;;3.83;;
48727;SDS011;34527;45.618;5.130;2022-08-05T14:03:36;6.30;;;4.18;;
48727;SDS011;34527;45.618;5.130;2022-08-05T14:06:02;4.93;;;3.20;;
48727;SDS011;34527;45.618;5.130;2022-08-05T14:08:28;4.28;;;3.13;;
48727;SDS011;34527;45.618;5.130;2022-08-05T14:10:54;6.72;;;3.38;;
48727;SDS011;34527;45.618;5.130;2022-08-05T14:13:20;8.52;;;3.47;;
48727;SDS011;34527;45.618;5.130;2022-08-05T14:15:46;3.50;;;2.95;;
48727;SDS011;34527;45.618;5.130;2022-08-05T14:18:12;7.00;;;3.10;;
48727;SDS011;34527;45.618;5.130;2022-08-05T14:20:38;5.28;;;3.17;;
48727;SDS011;34527;45.618;5.130;2022-08-05T14:23:04;3.38;;;2.65;;
48727;SDS011;34527;45.618;5.130;2022-08-05T14:25:29;4.65;;;2.90;;
48727;SDS011;34527;45.618;5.130;2022-08-05T14:27:56;5.65;;;2.90;;
48727;SDS011;34527;45.618;5.130;2022-08-05T14:30:22;8.15;;;3.10;;
48727;SDS011;34527;45.618;5.130;2022-08-05T14:32:49;6.30;;;2.97;;
48727;SDS011;34527;45.618;5.130;2022-08-05T14:35:15;4.75;;;2.88;;
48727;SDS011;34527;45.618;5.130;2022-08-05T14:37:41;6.55;;;3.45;;
48727;SDS011;34527;45.618;5.130;2022-08-05T14:40:07;7.78;;;2.58;;
48727;SDS011;34527;45.618;5.130;2022-08-05T14:42:33;13.68;;;3.83;;
48727;SDS011;34527;45.618;5.130;2022-08-05T14:45:00;5.45;;;2.70;;
48727;SDS011;34527;45.618;5.130;2022-08-05T14:47:25;8.20;;;2.95;;
48727;SDS011;34527;45.618;5.130;2022-08-05T14:49:52;5.53;;;3.17;;
48727;SDS011;34527;45.618;5.130;2022-08-05T14:52:18;4.32;;;3.38;;
48727;SDS011;34527;45.618;5.130;2022-08-05T14:54:44;7.18;;;3.03;;
48727;SDS011;34527;45.618;5.130;2022-08-05T14:57:10;4.30;;;3.10;;
48727;SDS011;34527;45.618;5.130;2022-08-05T14:59:36;3.40;;;3.10;;
48727;SDS011;34527;45.618;5.130;2022-08-05T15:02:03;6.10;;;3.17;;
48727;SDS011;34527;45.618;5.130;2022-08-05T15:04:29;5.28;;;3.03;;
48727;SDS011;34527;45.618;5.130;2022-08-05T15:06:54;3.75;;;3.10;;
48727;SDS011;34527;45.618;5.130;2022-08-05T15:09:20;4.82;;;2.90;;
48727;SDS011;34527;45.618;5.130;2022-08-05T15:11:46;5.80;;;3.20;;
48727;SDS011;34527;45.618;5.130;2022-08-05T15:14:12;4.53;;;3.15;;
48727;SDS011;34527;45.618;5.130;2022-08-05T15:16:41;3.20;;;3.00;;
48727;SDS011;34527;45.618;5.130;2022-08-05T15:19:07;5.75;;;3.28;;
48727;SDS011;34527;45.618;5.130;2022-08-05T15:21:33;9.15;;;2.95;;
48727;SDS011;34527;45.618;5.130;2022-08-05T15:23:59;4.45;;;3.00;;
48727;SDS011;34527;45.618;5.130;2022-08-05T15:26:25;5.45;;;2.97;;
48727;SDS011;34527;45.618;5.130;2022-08-05T15:28:51;5.68;;;3.20;;
48727;SDS011;34527;45.618;5.130;2022-08-05T15:31:16;6.95;;;2.95;;
48727;SDS011;34527;45.618;5.130;2022-08-05T15:33:42;8.35;;;3.15;;
48727;SDS011;34527;45.618;5.130;2022-08-05T15:36:08;8.05;;;2.75;;
48727;SDS011;34527;45.618;5.130;2022-08-05T15:38:34;4.50;;;3.00;;
48727;SDS011;34527;45.618;5.130;2022-08-05T15:41:00;3.33;;;3.03;;
48727;SDS011;34527;45.618;5.130;2022-08-05T15:43:26;7.88;;;3.22;;